Airfield :
LOGIN :

Register | Disclaimer

   EN    FR    IT 

 










Legend :    VFR   Marginal VFR   IFR   Intensive IFR   Very Intensive IFR
Visi :
Ceiling :
>= 8 km
>= 3000ft
5 to 8 km
1000 to 3000 ft
1500m to 5 km
500 to 1000 ft
800 to 1500m
200 to 500 ft
< 800m
< 200 ft
Symbols :   Thunderstorms  Fog  Heavy snow  Heavy precipitations  Wind > 20 kt
SIGMETs :     Misc.  Thunderstorms  Icing  Turbulence  Mountain Waves  Volcanic Ashes






- Airport Elevation : 26 ft


ETNT - Wittmundhaven AB

CURRENT METAR :
  • 050120Z 07003KT 9999 FEW130 11/11 Q1012 BLU+

EXPIRED METARs :
  • 050020Z 35001KT 9999 FEW050 11/11 Q1012 BLU+
  • 042320Z 04001KT 9999 FEW050 12/11 Q1013 BLU+

TAF TAF ETNT
Valid from the 05 at 02:00 until the 05 at 11:00 UTC


050125Z 0502/0511 07005KT 9999 NSW FEW030 SCT100
TEMPO 0502/0506 08003KT 2000 MIFG FEW020
PROB30 0502/0506 VRB02KT 0400 FG BKN002
PROB30 0509/0511 12012KT 4000 -SHRA BKN025TCU BY ETGL



MET'MAP, your aeronautical weather chart ! - Copyright ORBIFLY December 2007 - Disclaimer

ORBIFLY MET'MAP TEAM :

Programming & Development : Alexandra Zaïnal
Concept & original design : Baudouin d'Aumeries
Assistance for programming : Marc-Olivier Méhu
Technical & hardware support : Manuel Goepfert

Contact : metmap@orbifly.com




SOURCES & CREDITS :

   NOAA